sensor_id;sensor_type;location;lat;lon;timestamp;temperature;humidity
3069;DHT22;1545;51.728;8.796;2022-12-11T00:01:12;-0.10;92.80
3069;DHT22;1545;51.728;8.796;2022-12-11T00:03:38;0.00;93.00
3069;DHT22;1545;51.728;8.796;2022-12-11T00:06:11;0.00;93.10
3069;DHT22;1545;51.728;8.796;2022-12-11T00:08:37;0.00;93.10
3069;DHT22;1545;51.728;8.796;2022-12-11T00:11:03;0.00;93.50
3069;DHT22;1545;51.728;8.796;2022-12-11T00:13:29;0.00;93.40
3069;DHT22;1545;51.728;8.796;2022-12-11T00:15:56;0.00;93.30
3069;DHT22;1545;51.728;8.796;2022-12-11T00:18:22;0.10;93.40
3069;DHT22;1545;51.728;8.796;2022-12-11T00:20:47;0.00;93.10
3069;DHT22;1545;51.728;8.796;2022-12-11T00:23:13;0.00;92.90
3069;DHT22;1545;51.728;8.796;2022-12-11T00:25:43;0.00;93.00
3069;DHT22;1545;51.728;8.796;2022-12-11T00:28:13;0.10;93.10
3069;DHT22;1545;51.728;8.796;2022-12-11T00:30:40;0.10;93.00
3069;DHT22;1545;51.728;8.796;2022-12-11T00:33:07;0.10;92.90
3069;DHT22;1545;51.728;8.796;2022-12-11T00:35:33;0.10;92.80
3069;DHT22;1545;51.728;8.796;2022-12-11T00:37:58;0.10;92.40
3069;DHT22;1545;51.728;8.796;2022-12-11T00:40:24;0.10;92.40
3069;DHT22;1545;51.728;8.796;2022-12-11T00:42:49;0.00;92.50
3069;DHT22;1545;51.728;8.796;2022-12-11T00:45:15;0.10;92.80
3069;DHT22;1545;51.728;8.796;2022-12-11T00:47:40;0.00;93.00
3069;DHT22;1545;51.728;8.796;2022-12-11T00:50:06;0.00;93.10
3069;DHT22;1545;51.728;8.796;2022-12-11T00:52:32;0.00;93.40
3069;DHT22;1545;51.728;8.796;2022-12-11T00:54:59;0.00;93.40
3069;DHT22;1545;51.728;8.796;2022-12-11T00:57:24;0.10;93.50
3069;DHT22;1545;51.728;8.796;2022-12-11T00:59:50;0.10;93.60
3069;DHT22;1545;51.728;8.796;2022-12-11T01:02:15;0.10;93.40
3069;DHT22;1545;51.728;8.796;2022-12-11T01:04:41;0.10;93.50
3069;DHT22;1545;51.728;8.796;2022-12-11T01:07:06;0.20;93.40
3069;DHT22;1545;51.728;8.796;2022-12-11T01:09:32;0.30;93.20
3069;DHT22;1545;51.728;8.796;2022-12-11T01:12:19;0.30;93.20
3069;DHT22;1545;51.728;8.796;2022-12-11T01:14:45;0.40;93.10
3069;DHT22;1545;51.728;8.796;2022-12-11T01:17:10;0.40;92.80
3069;DHT22;1545;51.728;8.796;2022-12-11T01:19:36;0.50;92.30
3069;DHT22;1545;51.728;8.796;2022-12-11T01:22:02;0.50;92.10
3069;DHT22;1545;51.728;8.796;2022-12-11T01:24:27;0.50;92.10
3069;DHT22;1545;51.728;8.796;2022-12-11T01:26:53;0.50;92.00
3069;DHT22;1545;51.728;8.796;2022-12-11T01:29:18;0.50;91.80
3069;DHT22;1545;51.728;8.796;2022-12-11T01:31:44;0.40;92.00
3069;DHT22;1545;51.728;8.796;2022-12-11T01:34:09;0.40;92.00
3069;DHT22;1545;51.728;8.796;2022-12-11T01:36:35;0.40;92.00
3069;DHT22;1545;51.728;8.796;2022-12-11T01:39:00;0.40;92.20
3069;DHT22;1545;51.728;8.796;2022-12-11T01:41:26;0.40;92.20
3069;DHT22;1545;51.728;8.796;2022-12-11T01:44:02;0.40;92.20
3069;DHT22;1545;51.728;8.796;2022-12-11T01:46:30;0.40;92.30
3069;DHT22;1545;51.728;8.796;2022-12-11T01:48:56;0.40;92.20
3069;DHT22;1545;51.728;8.796;2022-12-11T01:51:23;0.40;92.30
3069;DHT22;1545;51.728;8.796;2022-12-11T01:53:53;0.40;92.60
3069;DHT22;1545;51.728;8.796;2022-12-11T01:56:20;0.40;92.80
3069;DHT22;1545;51.728;8.796;2022-12-11T01:58:49;0.40;92.80
3069;DHT22;1545;51.728;8.796;2022-12-11T02:01:24;0.40;92.60
3069;DHT22;1545;51.728;8.796;2022-12-11T02:03:52;0.40;92.90
3069;DHT22;1545;51.728;8.796;2022-12-11T02:06:38;0.40;93.00
3069;DHT22;1545;51.728;8.796;2022-12-11T02:09:07;0.40;93.00
3069;DHT22;1545;51.728;8.796;2022-12-11T02:14:16;0.40;93.40
3069;DHT22;1545;51.728;8.796;2022-12-11T02:16:57;0.40;93.60
3069;DHT22;1545;51.728;8.796;2022-12-11T02:19:48;0.40;93.90
3069;DHT22;1545;51.728;8.796;2022-12-11T02:25:04;0.40;94.50
3069;DHT22;1545;51.728;8.796;2022-12-11T02:27:48;0.40;94.60
3069;DHT22;1545;51.728;8.796;2022-12-11T02:30:15;0.30;94.90
3069;DHT22;1545;51.728;8.796;2022-12-11T02:32:53;0.30;95.10
3069;DHT22;1545;51.728;8.796;2022-12-11T02:35:32;0.30;95.50
3069;DHT22;1545;51.728;8.796;2022-12-11T02:38:17;0.20;95.60
3069;DHT22;1545;51.728;8.796;2022-12-11T02:40:46;0.10;95.90
3069;DHT22;1545;51.728;8.796;2022-12-11T02:43:15;0.10;96.40
3069;DHT22;1545;51.728;8.796;2022-12-11T02:45:43;0.10;96.70
3069;DHT22;1545;51.728;8.796;2022-12-11T02:48:10;0.10;96.90
3069;DHT22;1545;51.728;8.796;2022-12-11T02:50:42;0.10;97.10
3069;DHT22;1545;51.728;8.796;2022-12-11T02:53:10;0.10;97.30
3069;DHT22;1545;51.728;8.796;2022-12-11T02:55:37;0.10;97.30
3069;DHT22;1545;51.728;8.796;2022-12-11T02:58:13;0.00;97.50
3069;DHT22;1545;51.728;8.796;2022-12-11T03:00:40;0.00;97.80
3069;DHT22;1545;51.728;8.796;2022-12-11T03:03:06;0.00;98.00
3069;DHT22;1545;51.728;8.796;2022-12-11T03:05:32;-0.10;98.00
3069;DHT22;1545;51.728;8.796;2022-12-11T03:07:57;-0.10;98.30
3069;DHT22;1545;51.728;8.796;2022-12-11T03:10:23;-0.10;98.30
3069;DHT22;1545;51.728;8.796;2022-12-11T03:12:52;-0.20;98.70
3069;DHT22;1545;51.728;8.796;2022-12-11T03:15:21;-0.20;98.80
3069;DHT22;1545;51.728;8.796;2022-12-11T03:26:29;-0.30;98.80
3069;DHT22;1545;51.728;8.796;2022-12-11T03:28:59;-0.30;98.80
3069;DHT22;1545;51.728;8.796;2022-12-11T03:31:51;-0.20;98.80
3069;DHT22;1545;51.728;8.796;2022-12-11T03:34:24;-0.10;98.80
3069;DHT22;1545;51.728;8.796;2022-12-11T03:36:50;-0.10;98.80
3069;DHT22;1545;51.728;8.796;2022-12-11T03:39:22;0.00;98.80
3069;DHT22;1545;51.728;8.796;2022-12-11T03:41:51;0.00;98.80
3069;DHT22;1545;51.728;8.796;2022-12-11T03:44:19;0.00;98.80
3069;DHT22;1545;51.728;8.796;2022-12-11T03:46:45;0.10;98.80
3069;DHT22;1545;51.728;8.796;2022-12-11T03:49:18;0.10;98.80
3069;DHT22;1545;51.728;8.796;2022-12-11T03:51:47;0.10;98.80
3069;DHT22;1545;51.728;8.796;2022-12-11T03:54:14;0.20;98.80
3069;DHT22;1545;51.728;8.796;2022-12-11T03:56:42;0.20;98.80
3069;DHT22;1545;51.728;8.796;2022-12-11T03:59:09;0.10;98.80
3069;DHT22;1545;51.728;8.796;2022-12-11T04:01:35;0.20;98.80
3069;DHT22;1545;51.728;8.796;2022-12-11T04:04:01;0.20;98.80
3069;DHT22;1545;51.728;8.796;2022-12-11T04:06:27;0.20;98.80
3069;DHT22;1545;51.728;8.796;2022-12-11T04:08:52;0.20;98.80
3069;DHT22;1545;51.728;8.796;2022-12-11T04:11:18;0.30;98.80
3069;DHT22;1545;51.728;8.796;2022-12-11T04:14:09;0.30;98.80
3069;DHT22;1545;51.728;8.796;2022-12-11T04:16:54;0.30;98.80
3069;DHT22;1545;51.728;8.796;2022-12-11T04:19:22;0.30;98.80
3069;DHT22;1545;51.728;8.796;2022-12-11T04:22:06;0.20;98.80
3069;DHT22;1545;51.728;8.796;2022-12-11T04:24:52;0.20;98.80
3069;DHT22;1545;51.728;8.796;2022-12-11T04:27:18;0.20;98.80
3069;DHT22;1545;51.728;8.796;2022-12-11T04:30:05;0.20;98.80
3069;DHT22;1545;51.728;8.796;2022-12-11T04:32:32;0.20;98.80
3069;DHT22;1545;51.728;8.796;2022-12-11T04:34:58;0.10;98.80
3069;DHT22;1545;51.728;8.796;2022-12-11T04:37:23;0.10;98.80
3069;DHT22;1545;51.728;8.796;2022-12-11T04:39:49;0.00;98.80
3069;DHT22;1545;51.728;8.796;2022-12-11T04:42:15;0.00;98.80
3069;DHT22;1545;51.728;8.796;2022-12-11T04:44:40;0.00;98.80
3069;DHT22;1545;51.728;8.796;2022-12-11T04:47:06;0.00;98.80
3069;DHT22;1545;51.728;8.796;2022-12-11T04:49:31;-0.10;98.80
3069;DHT22;1545;51.728;8.796;2022-12-11T04:51:57;0.00;98.80
3069;DHT22;1545;51.728;8.796;2022-12-11T04:54:22;0.00;98.80
3069;DHT22;1545;51.728;8.796;2022-12-11T04:56:48;0.00;98.80
3069;DHT22;1545;51.728;8.796;2022-12-11T04:59:13;0.10;98.80
3069;DHT22;1545;51.728;8.796;2022-12-11T05:01:39;0.10;98.80
3069;DHT22;1545;51.728;8.796;2022-12-11T05:04:04;0.20;98.80
3069;DHT22;1545;51.728;8.796;2022-12-11T05:06:30;0.20;98.80
3069;DHT22;1545;51.728;8.796;2022-12-11T05:08:55;0.20;98.80
3069;DHT22;1545;51.728;8.796;2022-12-11T05:11:21;0.20;98.80
3069;DHT22;1545;51.728;8.796;2022-12-11T05:13:47;0.20;98.80
3069;DHT22;1545;51.728;8.796;2022-12-11T05:16:14;0.20;98.80
3069;DHT22;1545;51.728;8.796;2022-12-11T05:18:40;0.20;98.80
3069;DHT22;1545;51.728;8.796;2022-12-11T05:21:08;0.20;98.80
3069;DHT22;1545;51.728;8.796;2022-12-11T05:23:34;0.20;98.80
3069;DHT22;1545;51.728;8.796;2022-12-11T05:26:03;0.30;98.80
3069;DHT22;1545;51.728;8.796;2022-12-11T05:28:31;0.30;98.80
3069;DHT22;1545;51.728;8.796;2022-12-11T05:30:58;0.30;98.80
3069;DHT22;1545;51.728;8.796;2022-12-11T05:33:25;0.30;98.80
3069;DHT22;1545;51.728;8.796;2022-12-11T05:35:51;0.30;98.80
3069;DHT22;1545;51.728;8.796;2022-12-11T05:38:16;0.20;98.80
3069;DHT22;1545;51.728;8.796;2022-12-11T05:40:42;0.30;98.80
3069;DHT22;1545;51.728;8.796;2022-12-11T05:43:08;0.30;98.80
3069;DHT22;1545;51.728;8.796;2022-12-11T05:45:33;0.30;98.80
3069;DHT22;1545;51.728;8.796;2022-12-11T05:47:59;0.30;98.80
3069;DHT22;1545;51.728;8.796;2022-12-11T05:50:24;0.30;98.80
3069;DHT22;1545;51.728;8.796;2022-12-11T05:52:50;0.30;98.80
3069;DHT22;1545;51.728;8.796;2022-12-11T05:55:15;0.40;98.80
3069;DHT22;1545;51.728;8.796;2022-12-11T05:57:41;0.40;98.80
3069;DHT22;1545;51.728;8.796;2022-12-11T06:00:08;0.40;98.80
3069;DHT22;1545;51.728;8.796;2022-12-11T06:02:34;0.50;98.80
3069;DHT22;1545;51.728;8.796;2022-12-11T06:05:00;0.50;98.80
3069;DHT22;1545;51.728;8.796;2022-12-11T06:07:25;0.50;98.80
3069;DHT22;1545;51.728;8.796;2022-12-11T06:09:51;0.60;98.80
3069;DHT22;1545;51.728;8.796;2022-12-11T06:12:16;0.60;98.80
3069;DHT22;1545;51.728;8.796;2022-12-11T06:14:42;0.60;98.80
3069;DHT22;1545;51.728;8.796;2022-12-11T06:17:07;0.60;98.80
3069;DHT22;1545;51.728;8.796;2022-12-11T06:19:33;0.50;98.80
3069;DHT22;1545;51.728;8.796;2022-12-11T06:21:58;0.50;98.80
3069;DHT22;1545;51.728;8.796;2022-12-11T06:24:24;0.50;98.80
3069;DHT22;1545;51.728;8.796;2022-12-11T06:26:49;0.50;98.80
3069;DHT22;1545;51.728;8.796;2022-12-11T06:29:15;0.50;98.80
3069;DHT22;1545;51.728;8.796;2022-12-11T06:31:41;0.50;98.80
3069;DHT22;1545;51.728;8.796;2022-12-11T06:34:07;0.50;98.80
3069;DHT22;1545;51.728;8.796;2022-12-11T06:36:33;0.50;98.80
3069;DHT22;1545;51.728;8.796;2022-12-11T06:38:59;0.50;98.80
3069;DHT22;1545;51.728;8.796;2022-12-11T06:41:24;0.50;98.80
3069;DHT22;1545;51.728;8.796;2022-12-11T06:43:50;0.60;98.80
3069;DHT22;1545;51.728;8.796;2022-12-11T06:46:18;0.60;98.80
3069;DHT22;1545;51.728;8.796;2022-12-11T06:48:45;0.60;98.80
3069;DHT22;1545;51.728;8.796;2022-12-11T06:51:16;0.50;98.80
3069;DHT22;1545;51.728;8.796;2022-12-11T06:53:42;0.50;98.80
3069;DHT22;1545;51.728;8.796;2022-12-11T06:56:11;0.50;98.80
3069;DHT22;1545;51.728;8.796;2022-12-11T06:58:38;0.50;98.80
3069;DHT22;1545;51.728;8.796;2022-12-11T07:01:13;0.50;98.80
3069;DHT22;1545;51.728;8.796;2022-12-11T07:03:39;0.50;98.80
3069;DHT22;1545;51.728;8.796;2022-12-11T07:06:05;0.50;98.80
3069;DHT22;1545;51.728;8.796;2022-12-11T07:08:30;0.60;98.80
3069;DHT22;1545;51.728;8.796;2022-12-11T07:11:02;0.60;98.80
3069;DHT22;1545;51.728;8.796;2022-12-11T07:13:28;0.60;98.80
3069;DHT22;1545;51.728;8.796;2022-12-11T07:15:53;0.60;98.80
3069;DHT22;1545;51.728;8.796;2022-12-11T07:18:19;0.50;98.80
3069;DHT22;1545;51.728;8.796;2022-12-11T07:20:44;0.50;98.80
3069;DHT22;1545;51.728;8.796;2022-12-11T07:23:10;0.50;98.80
3069;DHT22;1545;51.728;8.796;2022-12-11T07:25:36;0.50;98.80
3069;DHT22;1545;51.728;8.796;2022-12-11T07:28:03;0.50;98.80
3069;DHT22;1545;51.728;8.796;2022-12-11T07:30:28;0.40;98.80
3069;DHT22;1545;51.728;8.796;2022-12-11T07:32:54;0.40;98.80
3069;DHT22;1545;51.728;8.796;2022-12-11T07:35:20;0.30;98.80
3069;DHT22;1545;51.728;8.796;2022-12-11T07:37:45;0.30;98.80
3069;DHT22;1545;51.728;8.796;2022-12-11T07:40:11;0.30;98.80
3069;DHT22;1545;51.728;8.796;2022-12-11T07:42:37;0.30;98.80
3069;DHT22;1545;51.728;8.796;2022-12-11T07:45:03;0.20;98.80
3069;DHT22;1545;51.728;8.796;2022-12-11T07:47:29;0.20;98.80
3069;DHT22;1545;51.728;8.796;2022-12-11T07:49:54;0.20;98.80
3069;DHT22;1545;51.728;8.796;2022-12-11T07:52:20;0.10;98.80
3069;DHT22;1545;51.728;8.796;2022-12-11T07:54:45;0.10;98.80
3069;DHT22;1545;51.728;8.796;2022-12-11T07:57:11;0.10;98.80
3069;DHT22;1545;51.728;8.796;2022-12-11T07:59:36;0.10;98.80
3069;DHT22;1545;51.728;8.796;2022-12-11T08:02:02;0.20;98.80
3069;DHT22;1545;51.728;8.796;2022-12-11T08:04:27;0.30;98.80
3069;DHT22;1545;51.728;8.796;2022-12-11T08:06:53;0.40;98.80
3069;DHT22;1545;51.728;8.796;2022-12-11T08:09:18;0.30;98.80
3069;DHT22;1545;51.728;8.796;2022-12-11T08:11:50;0.30;98.80
3069;DHT22;1545;51.728;8.796;2022-12-11T08:14:16;0.30;98.80
3069;DHT22;1545;51.728;8.796;2022-12-11T08:16:42;0.30;98.80
3069;DHT22;1545;51.728;8.796;2022-12-11T08:19:12;0.30;98.80
3069;DHT22;1545;51.728;8.796;2022-12-11T08:21:38;0.30;98.80
3069;DHT22;1545;51.728;8.796;2022-12-11T08:24:05;0.30;98.80
3069;DHT22;1545;51.728;8.796;2022-12-11T08:26:31;0.30;98.80
3069;DHT22;1545;51.728;8.796;2022-12-11T08:28:57;0.30;98.80
3069;DHT22;1545;51.728;8.796;2022-12-11T08:31:24;0.30;98.80
3069;DHT22;1545;51.728;8.796;2022-12-11T08:33:50;0.30;98.80
3069;DHT22;1545;51.728;8.796;2022-12-11T08:36:18;0.40;98.80
3069;DHT22;1545;51.728;8.796;2022-12-11T08:38:45;0.40;98.80
3069;DHT22;1545;51.728;8.796;2022-12-11T08:41:13;0.50;98.80
3069;DHT22;1545;51.728;8.796;2022-12-11T08:43:39;0.40;98.80
3069;DHT22;1545;51.728;8.796;2022-12-11T08:46:05;0.50;98.80
3069;DHT22;1545;51.728;8.796;2022-12-11T08:48:32;0.40;98.80
3069;DHT22;1545;51.728;8.796;2022-12-11T08:50:59;0.40;98.80
3069;DHT22;1545;51.728;8.796;2022-12-11T08:53:27;0.30;98.80
3069;DHT22;1545;51.728;8.796;2022-12-11T08:55:53;0.30;98.80
3069;DHT22;1545;51.728;8.796;2022-12-11T08:58:18;0.30;98.80
3069;DHT22;1545;51.728;8.796;2022-12-11T09:00:44;0.20;98.80
3069;DHT22;1545;51.728;8.796;2022-12-11T09:03:09;0.30;98.80
3069;DHT22;1545;51.728;8.796;2022-12-11T09:05:37;0.30;98.80
3069;DHT22;1545;51.728;8.796;2022-12-11T09:08:03;0.40;98.80
3069;DHT22;1545;51.728;8.796;2022-12-11T09:10:28;0.40;98.80
3069;DHT22;1545;51.728;8.796;2022-12-11T09:12:54;0.40;98.80
3069;DHT22;1545;51.728;8.796;2022-12-11T09:15:19;0.30;98.80
3069;DHT22;1545;51.728;8.796;2022-12-11T09:17:45;0.30;98.80
3069;DHT22;1545;51.728;8.796;2022-12-11T09:20:10;0.30;98.80
3069;DHT22;1545;51.728;8.796;2022-12-11T09:22:36;0.20;98.80
3069;DHT22;1545;51.728;8.796;2022-12-11T09:25:01;0.10;98.80
3069;DHT22;1545;51.728;8.796;2022-12-11T09:27:27;0.10;98.80
3069;DHT22;1545;51.728;8.796;2022-12-11T09:29:53;0.20;98.80
3069;DHT22;1545;51.728;8.796;2022-12-11T09:32:19;0.20;98.80
3069;DHT22;1545;51.728;8.796;2022-12-11T09:34:44;0.20;98.80
3069;DHT22;1545;51.728;8.796;2022-12-11T09:37:10;0.20;98.80
3069;DHT22;1545;51.728;8.796;2022-12-11T09:39:35;0.00;98.80
3069;DHT22;1545;51.728;8.796;2022-12-11T09:42:24;-0.10;98.80
3069;DHT22;1545;51.728;8.796;2022-12-11T09:44:50;-0.10;98.80
3069;DHT22;1545;51.728;8.796;2022-12-11T09:47:22;0.00;98.80
3069;DHT22;1545;51.728;8.796;2022-12-11T09:49:56;0.00;98.80
3069;DHT22;1545;51.728;8.796;2022-12-11T09:52:30;0.10;98.80
3069;DHT22;1545;51.728;8.796;2022-12-11T09:54:59;0.00;98.80
3069;DHT22;1545;51.728;8.796;2022-12-11T10:00:47;0.00;98.80
3069;DHT22;1545;51.728;8.796;2022-12-11T10:06:19;0.10;98.80
3069;DHT22;1545;51.728;8.796;2022-12-11T10:14:10;0.40;98.80
3069;DHT22;1545;51.728;8.796;2022-12-11T10:16:47;0.50;98.80
3069;DHT22;1545;51.728;8.796;2022-12-11T10:19:24;0.50;98.80
3069;DHT22;1545;51.728;8.796;2022-12-11T10:21:52;0.60;98.80
3069;DHT22;1545;51.728;8.796;2022-12-11T10:26:55;0.60;98.80
3069;DHT22;1545;51.728;8.796;2022-12-11T10:29:22;0.60;98.80
3069;DHT22;1545;51.728;8.796;2022-12-11T10:31:55;0.60;98.80
3069;DHT22;1545;51.728;8.796;2022-12-11T10:34:35;0.70;98.80
3069;DHT22;1545;51.728;8.796;2022-12-11T10:37:02;0.60;98.80
3069;DHT22;1545;51.728;8.796;2022-12-11T10:39:27;0.50;98.80
3069;DHT22;1545;51.728;8.796;2022-12-11T10:41:54;0.60;98.70
3069;DHT22;1545;51.728;8.796;2022-12-11T10:44:23;0.60;98.00
3069;DHT22;1545;51.728;8.796;2022-12-11T10:47:05;0.60;97.80
3069;DHT22;1545;51.728;8.796;2022-12-11T10:49:33;0.40;97.20
3069;DHT22;1545;51.728;8.796;2022-12-11T10:52:00;0.40;97.40
3069;DHT22;1545;51.728;8.796;2022-12-11T10:56:51;0.40;97.50
3069;DHT22;1545;51.728;8.796;2022-12-11T10:59:37;0.40;97.90
3069;DHT22;1545;51.728;8.796;2022-12-11T11:02:04;0.40;97.70
3069;DHT22;1545;51.728;8.796;2022-12-11T11:04:35;0.40;97.70
3069;DHT22;1545;51.728;8.796;2022-12-11T11:07:11;0.30;97.90
3069;DHT22;1545;51.728;8.796;2022-12-11T11:09:37;0.30;98.10
3069;DHT22;1545;51.728;8.796;2022-12-11T11:12:04;0.30;98.10
3069;DHT22;1545;51.728;8.796;2022-12-11T11:14:41;0.30;97.90
3069;DHT22;1545;51.728;8.796;2022-12-11T11:17:14;0.30;98.00
3069;DHT22;1545;51.728;8.796;2022-12-11T11:19:40;0.30;98.10
3069;DHT22;1545;51.728;8.796;2022-12-11T11:22:14;0.30;98.10
3069;DHT22;1545;51.728;8.796;2022-12-11T11:24:43;0.30;97.50
3069;DHT22;1545;51.728;8.796;2022-12-11T11:29:58;0.20;97.70
3069;DHT22;1545;51.728;8.796;2022-12-11T11:32:31;0.20;98.10
3069;DHT22;1545;51.728;8.796;2022-12-11T11:35:15;0.20;98.30
3069;DHT22;1545;51.728;8.796;2022-12-11T11:37:45;0.10;98.10
3069;DHT22;1545;51.728;8.796;2022-12-11T11:40:20;0.10;98.10
3069;DHT22;1545;51.728;8.796;2022-12-11T11:51:35;0.20;98.10
3069;DHT22;1545;51.728;8.796;2022-12-11T11:54:49;0.30;98.00
3069;DHT22;1545;51.728;8.796;2022-12-11T11:56:56;0.30;97.80
3069;DHT22;1545;51.728;8.796;2022-12-11T11:59:29;0.40;97.50
3069;DHT22;1545;51.728;8.796;2022-12-11T12:01:56;0.40;96.90
3069;DHT22;1545;51.728;8.796;2022-12-11T12:04:32;0.30;96.70
3069;DHT22;1545;51.728;8.796;2022-12-11T12:07:23;0.20;96.50
3069;DHT22;1545;51.728;8.796;2022-12-11T12:10:03;0.10;96.60
3069;DHT22;1545;51.728;8.796;2022-12-11T12:12:59;0.20;96.70
3069;DHT22;1545;51.728;8.796;2022-12-11T12:20:59;0.20;97.10
3069;DHT22;1545;51.728;8.796;2022-12-11T12:26:28;0.20;96.80
3069;DHT22;1545;51.728;8.796;2022-12-11T12:29:01;0.20;96.90
3069;DHT22;1545;51.728;8.796;2022-12-11T12:32:08;0.30;96.70
3069;DHT22;1545;51.728;8.796;2022-12-11T12:38:09;0.20;96.90
3069;DHT22;1545;51.728;8.796;2022-12-11T12:40:45;0.20;96.80
3069;DHT22;1545;51.728;8.796;2022-12-11T12:46:20;0.30;96.90
3069;DHT22;1545;51.728;8.796;2022-12-11T12:48:48;0.30;96.90
3069;DHT22;1545;51.728;8.796;2022-12-11T12:51:15;0.30;96.60
3069;DHT22;1545;51.728;8.796;2022-12-11T12:53:47;0.30;96.10
3069;DHT22;1545;51.728;8.796;2022-12-11T12:56:13;0.30;96.00
3069;DHT22;1545;51.728;8.796;2022-12-11T12:58:41;0.30;95.80
3069;DHT22;1545;51.728;8.796;2022-12-11T13:03:56;0.40;95.90
3069;DHT22;1545;51.728;8.796;2022-12-11T13:08:56;0.40;96.10
3069;DHT22;1545;51.728;8.796;2022-12-11T13:11:30;0.60;95.80
3069;DHT22;1545;51.728;8.796;2022-12-11T13:14:27;0.60;95.80
3069;DHT22;1545;51.728;8.796;2022-12-11T13:17:35;0.40;95.50
3069;DHT22;1545;51.728;8.796;2022-12-11T13:20:14;0.20;95.60
3069;DHT22;1545;51.728;8.796;2022-12-11T13:22:54;0.10;96.60
3069;DHT22;1545;51.728;8.796;2022-12-11T13:25:24;0.10;97.00
3069;DHT22;1545;51.728;8.796;2022-12-11T13:27:50;0.30;97.30
3069;DHT22;1545;51.728;8.796;2022-12-11T13:30:22;0.40;97.10
3069;DHT22;1545;51.728;8.796;2022-12-11T13:35:25;0.10;97.00
3069;DHT22;1545;51.728;8.796;2022-12-11T13:37:51;0.10;97.40
3069;DHT22;1545;51.728;8.796;2022-12-11T13:40:21;-0.10;98.00
3069;DHT22;1545;51.728;8.796;2022-12-11T13:45:47;-0.20;98.40
3069;DHT22;1545;51.728;8.796;2022-12-11T13:48:37;-0.20;98.50
3069;DHT22;1545;51.728;8.796;2022-12-11T13:51:04;-0.20;98.70
3069;DHT22;1545;51.728;8.796;2022-12-11T13:53:31;-0.20;98.80
3069;DHT22;1545;51.728;8.796;2022-12-11T13:56:03;-0.20;98.80
3069;DHT22;1545;51.728;8.796;2022-12-11T13:58:33;-0.20;98.80
3069;DHT22;1545;51.728;8.796;2022-12-11T14:01:14;-0.10;98.80
3069;DHT22;1545;51.728;8.796;2022-12-11T14:03:47;-0.10;98.80
3069;DHT22;1545;51.728;8.796;2022-12-11T14:06:17;-0.10;98.70
3069;DHT22;1545;51.728;8.796;2022-12-11T14:08:44;-0.20;98.80
3069;DHT22;1545;51.728;8.796;2022-12-11T14:11:24;-0.10;98.80
3069;DHT22;1545;51.728;8.796;2022-12-11T14:13:53;0.00;98.80
3069;DHT22;1545;51.728;8.796;2022-12-11T14:16:21;0.10;98.80
3069;DHT22;1545;51.728;8.796;2022-12-11T14:18:49;0.20;98.80
3069;DHT22;1545;51.728;8.796;2022-12-11T14:21:23;0.30;98.80
3069;DHT22;1545;51.728;8.796;2022-12-11T14:23:54;0.30;98.80
3069;DHT22;1545;51.728;8.796;2022-12-11T14:26:28;0.40;98.60
3069;DHT22;1545;51.728;8.796;2022-12-11T14:28:55;0.40;98.20
3069;DHT22;1545;51.728;8.796;2022-12-11T14:31:29;0.40;98.00
3069;DHT22;1545;51.728;8.796;2022-12-11T14:34:04;0.40;98.00
3069;DHT22;1545;51.728;8.796;2022-12-11T14:36:32;0.50;97.70
3069;DHT22;1545;51.728;8.796;2022-12-11T14:39:02;0.40;97.40
3069;DHT22;1545;51.728;8.796;2022-12-11T14:41:44;0.40;97.50
3069;DHT22;1545;51.728;8.796;2022-12-11T14:44:16;0.40;97.80
3069;DHT22;1545;51.728;8.796;2022-12-11T14:46:48;0.40;97.70
3069;DHT22;1545;51.728;8.796;2022-12-11T14:49:22;0.40;97.60
3069;DHT22;1545;51.728;8.796;2022-12-11T14:51:49;0.40;97.40
3069;DHT22;1545;51.728;8.796;2022-12-11T14:54:40;0.40;97.40
3069;DHT22;1545;51.728;8.796;2022-12-11T14:57:18;0.30;97.50
3069;DHT22;1545;51.728;8.796;2022-12-11T14:59:46;0.30;97.40
3069;DHT22;1545;51.728;8.796;2022-12-11T15:02:32;0.30;97.50
3069;DHT22;1545;51.728;8.796;2022-12-11T15:05:02;0.30;97.30
3069;DHT22;1545;51.728;8.796;2022-12-11T15:07:28;0.30;97.30
3069;DHT22;1545;51.728;8.796;2022-12-11T15:09:53;0.30;97.00
3069;DHT22;1545;51.728;8.796;2022-12-11T15:12:19;0.30;97.00
3069;DHT22;1545;51.728;8.796;2022-12-11T15:14:53;0.30;97.00
3069;DHT22;1545;51.728;8.796;2022-12-11T15:17:20;0.30;97.00
3069;DHT22;1545;51.728;8.796;2022-12-11T15:19:48;0.30;97.00
3069;DHT22;1545;51.728;8.796;2022-12-11T15:22:16;0.20;97.30
3069;DHT22;1545;51.728;8.796;2022-12-11T15:24:44;0.20;97.50
3069;DHT22;1545;51.728;8.796;2022-12-11T15:27:32;0.20;97.60
3069;DHT22;1545;51.728;8.796;2022-12-11T15:29:59;0.30;97.80
3069;DHT22;1545;51.728;8.796;2022-12-11T15:32:25;0.40;97.90
3069;DHT22;1545;51.728;8.796;2022-12-11T15:34:58;0.40;97.90
3069;DHT22;1545;51.728;8.796;2022-12-11T15:37:31;0.40;97.90
3069;DHT22;1545;51.728;8.796;2022-12-11T15:39:59;0.50;97.80
3069;DHT22;1545;51.728;8.796;2022-12-11T15:42:34;0.50;97.20
3069;DHT22;1545;51.728;8.796;2022-12-11T15:45:01;0.50;97.10
3069;DHT22;1545;51.728;8.796;2022-12-11T15:47:30;0.50;96.90
3069;DHT22;1545;51.728;8.796;2022-12-11T15:50:00;0.40;96.40
3069;DHT22;1545;51.728;8.796;2022-12-11T15:52:26;0.40;96.50
3069;DHT22;1545;51.728;8.796;2022-12-11T15:54:52;0.30;96.50
3069;DHT22;1545;51.728;8.796;2022-12-11T15:57:20;0.30;96.50
3069;DHT22;1545;51.728;8.796;2022-12-11T15:59:48;0.30;96.50
3069;DHT22;1545;51.728;8.796;2022-12-11T16:02:15;0.20;96.60
3069;DHT22;1545;51.728;8.796;2022-12-11T16:04:41;0.20;96.80
3069;DHT22;1545;51.728;8.796;2022-12-11T16:07:18;0.20;97.10
3069;DHT22;1545;51.728;8.796;2022-12-11T16:09:45;0.20;97.10
3069;DHT22;1545;51.728;8.796;2022-12-11T16:12:11;0.10;97.00
3069;DHT22;1545;51.728;8.796;2022-12-11T16:14:37;0.10;97.30
3069;DHT22;1545;51.728;8.796;2022-12-11T16:17:04;0.10;97.50
3069;DHT22;1545;51.728;8.796;2022-12-11T16:19:30;0.10;97.40
3069;DHT22;1545;51.728;8.796;2022-12-11T16:21:56;0.10;97.40
3069;DHT22;1545;51.728;8.796;2022-12-11T16:24:21;0.20;97.50
3069;DHT22;1545;51.728;8.796;2022-12-11T16:26:47;0.10;97.40
3069;DHT22;1545;51.728;8.796;2022-12-11T16:29:12;0.20;97.20
3069;DHT22;1545;51.728;8.796;2022-12-11T16:31:38;0.20;96.60
3069;DHT22;1545;51.728;8.796;2022-12-11T16:34:03;0.10;96.50
3069;DHT22;1545;51.728;8.796;2022-12-11T16:36:29;0.10;96.80
3069;DHT22;1545;51.728;8.796;2022-12-11T16:38:54;0.20;97.10
3069;DHT22;1545;51.728;8.796;2022-12-11T16:41:21;0.20;97.40
3069;DHT22;1545;51.728;8.796;2022-12-11T16:43:47;0.30;97.50
3069;DHT22;1545;51.728;8.796;2022-12-11T16:46:16;0.30;97.60
3069;DHT22;1545;51.728;8.796;2022-12-11T16:48:44;0.30;97.50
3069;DHT22;1545;51.728;8.796;2022-12-11T16:51:09;0.30;97.20
3069;DHT22;1545;51.728;8.796;2022-12-11T16:53:35;0.30;97.20
3069;DHT22;1545;51.728;8.796;2022-12-11T16:56:01;0.30;97.20
3069;DHT22;1545;51.728;8.796;2022-12-11T16:58:26;0.40;97.10
3069;DHT22;1545;51.728;8.796;2022-12-11T17:00:52;0.40;97.40
3069;DHT22;1545;51.728;8.796;2022-12-11T17:03:29;0.40;97.40
3069;DHT22;1545;51.728;8.796;2022-12-11T17:05:56;0.30;97.50
3069;DHT22;1545;51.728;8.796;2022-12-11T17:08:22;0.40;97.70
3069;DHT22;1545;51.728;8.796;2022-12-11T17:10:49;0.40;97.70
3069;DHT22;1545;51.728;8.796;2022-12-11T17:13:15;0.40;97.00
3069;DHT22;1545;51.728;8.796;2022-12-11T17:15:41;0.30;97.10
3069;DHT22;1545;51.728;8.796;2022-12-11T17:18:08;0.30;97.30
3069;DHT22;1545;51.728;8.796;2022-12-11T17:20:34;0.30;97.40
3069;DHT22;1545;51.728;8.796;2022-12-11T17:23:03;0.30;97.60
3069;DHT22;1545;51.728;8.796;2022-12-11T17:25:29;0.30;97.70
3069;DHT22;1545;51.728;8.796;2022-12-11T17:27:54;0.30;97.80
3069;DHT22;1545;51.728;8.796;2022-12-11T17:30:20;0.40;97.80
3069;DHT22;1545;51.728;8.796;2022-12-11T17:32:47;0.40;97.90
3069;DHT22;1545;51.728;8.796;2022-12-11T17:35:12;0.40;98.10
3069;DHT22;1545;51.728;8.796;2022-12-11T17:37:38;0.40;98.30